<?xml version="1.0" encoding="UTF-8" standalone="no" ?>
<gpx xmlns="http://www.topografix.com/GPX/1/1" xmlns:xsi="http://www.w3.org/2001/XMLSchema-instance" xsi:schemaLocation="http://www.topografix.com/GPX/1/1 http://www.topografix.com/GPX/1/1/gpx.xsd" version="1.1" creator="VisuGPX - https://www.visugpx.com">
  <metadata>
    <name>CMC rustrel</name>
    <desc><![CDATA[Retrouvaille des modos MC dans le colorado provençal]]></desc>
  </metadata>
  <trk>
    <name><![CDATA[rustrel2008]]></name>
    <trkseg>
      <trkpt lat="43.91335" lon="5.46975">
        <ele>318</ele>
        <time>2008-03-27T08:24:47Z</time>
      </trkpt>
      <trkpt lat="43.91282" lon="5.46948">
        <ele>321</ele>
        <time>2008-03-27T08:29:33Z</time>
      </trkpt>
      <trkpt lat="43.91233" lon="5.46933">
        <ele>320</ele>
        <time>2008-03-27T08:30:17Z</time>
      </trkpt>
      <trkpt lat="43.91163" lon="5.46942">
        <ele>326</ele>
        <time>2008-03-27T08:31:29Z</time>
      </trkpt>
      <trkpt lat="43.91108" lon="5.46905">
        <ele>339</ele>
        <time>2008-03-27T08:32:43Z</time>
      </trkpt>
      <trkpt lat="43.91117" lon="5.46827">
        <ele>339</ele>
        <time>2008-03-27T08:34:38Z</time>
      </trkpt>
      <trkpt lat="43.91147" lon="5.46762">
        <ele>332</ele>
        <time>2008-03-27T08:35:46Z</time>
      </trkpt>
      <trkpt lat="43.91132" lon="5.46717">
        <ele>336</ele>
        <time>2008-03-27T08:37:16Z</time>
      </trkpt>
      <trkpt lat="43.9108" lon="5.46697">
        <ele>341</ele>
        <time>2008-03-27T08:38:24Z</time>
      </trkpt>
      <trkpt lat="43.91045" lon="5.46647">
        <ele>343</ele>
        <time>2008-03-27T08:39:27Z</time>
      </trkpt>
      <trkpt lat="43.91023" lon="5.46582">
        <ele>348</ele>
        <time>2008-03-27T08:40:41Z</time>
      </trkpt>
      <trkpt lat="43.90972" lon="5.46493">
        <ele>362</ele>
        <time>2008-03-27T08:42:21Z</time>
      </trkpt>
      <trkpt lat="43.90923" lon="5.46453">
        <ele>362</ele>
        <time>2008-03-27T08:43:30Z</time>
      </trkpt>
      <trkpt lat="43.90865" lon="5.46462">
        <ele>356</ele>
        <time>2008-03-27T08:45:33Z</time>
      </trkpt>
      <trkpt lat="43.90837" lon="5.46515">
        <ele>362</ele>
        <time>2008-03-27T08:47:32Z</time>
      </trkpt>
      <trkpt lat="43.90825" lon="5.46583">
        <ele>374</ele>
        <time>2008-03-27T08:49:19Z</time>
      </trkpt>
      <trkpt lat="43.90763" lon="5.46608">
        <ele>385</ele>
        <time>2008-03-27T08:51:10Z</time>
      </trkpt>
      <trkpt lat="43.90717" lon="5.46612">
        <ele>391</ele>
        <time>2008-03-27T08:52:25Z</time>
      </trkpt>
      <trkpt lat="43.90635" lon="5.46615">
        <ele>400</ele>
        <time>2008-03-27T08:54:15Z</time>
      </trkpt>
      <trkpt lat="43.90588" lon="5.46618">
        <ele>404</ele>
        <time>2008-03-27T08:55:12Z</time>
      </trkpt>
      <trkpt lat="43.9053" lon="5.46638">
        <ele>419</ele>
        <time>2008-03-27T08:56:54Z</time>
      </trkpt>
      <trkpt lat="43.9049" lon="5.46635">
        <ele>432</ele>
        <time>2008-03-27T08:58:52Z</time>
      </trkpt>
      <trkpt lat="43.90443" lon="5.46627">
        <ele>441</ele>
        <time>2008-03-27T09:00:07Z</time>
      </trkpt>
      <trkpt lat="43.90408" lon="5.4671">
        <ele>457</ele>
        <time>2008-03-27T09:02:08Z</time>
      </trkpt>
      <trkpt lat="43.9039" lon="5.46812">
        <ele>464</ele>
        <time>2008-03-27T09:03:31Z</time>
      </trkpt>
      <trkpt lat="43.90387" lon="5.469">
        <ele>470</ele>
        <time>2008-03-27T09:04:50Z</time>
      </trkpt>
      <trkpt lat="43.9033" lon="5.46773">
        <ele>487</ele>
        <time>2008-03-27T09:07:15Z</time>
      </trkpt>
      <trkpt lat="43.90288" lon="5.46675">
        <ele>492</ele>
        <time>2008-03-27T09:08:39Z</time>
      </trkpt>
      <trkpt lat="43.90257" lon="5.46638">
        <ele>494</ele>
        <time>2008-03-27T09:09:35Z</time>
      </trkpt>
      <trkpt lat="43.90208" lon="5.46577">
        <ele>493</ele>
        <time>2008-03-27T09:16:04Z</time>
      </trkpt>
      <trkpt lat="43.90195" lon="5.46508">
        <ele>486</ele>
        <time>2008-03-27T09:17:11Z</time>
      </trkpt>
      <trkpt lat="43.90173" lon="5.46417">
        <ele>479</ele>
        <time>2008-03-27T09:18:19Z</time>
      </trkpt>
      <trkpt lat="43.90152" lon="5.46345">
        <ele>478</ele>
        <time>2008-03-27T09:19:11Z</time>
      </trkpt>
      <trkpt lat="43.90145" lon="5.46275">
        <ele>472</ele>
        <time>2008-03-27T09:20:11Z</time>
      </trkpt>
      <trkpt lat="43.90087" lon="5.4621">
        <ele>467</ele>
        <time>2008-03-27T09:21:35Z</time>
      </trkpt>
      <trkpt lat="43.90072" lon="5.46145">
        <ele>463</ele>
        <time>2008-03-27T09:22:34Z</time>
      </trkpt>
      <trkpt lat="43.90022" lon="5.46108">
        <ele>466</ele>
        <time>2008-03-27T09:23:36Z</time>
      </trkpt>
      <trkpt lat="43.89965" lon="5.4609">
        <ele>463</ele>
        <time>2008-03-27T09:24:42Z</time>
      </trkpt>
      <trkpt lat="43.89923" lon="5.46027">
        <ele>460</ele>
        <time>2008-03-27T09:25:56Z</time>
      </trkpt>
      <trkpt lat="43.89857" lon="5.46042">
        <ele>452</ele>
        <time>2008-03-27T09:27:08Z</time>
      </trkpt>
      <trkpt lat="43.89818" lon="5.46003">
        <ele>450</ele>
        <time>2008-03-27T09:28:07Z</time>
      </trkpt>
      <trkpt lat="43.89743" lon="5.45975">
        <ele>444</ele>
        <time>2008-03-27T09:29:26Z</time>
      </trkpt>
      <trkpt lat="43.89657" lon="5.45943">
        <ele>436</ele>
        <time>2008-03-27T09:31:03Z</time>
      </trkpt>
      <trkpt lat="43.89603" lon="5.4587">
        <ele>434</ele>
        <time>2008-03-27T09:32:19Z</time>
      </trkpt>
      <trkpt lat="43.89553" lon="5.45832">
        <ele>431</ele>
        <time>2008-03-27T09:33:02Z</time>
      </trkpt>
      <trkpt lat="43.8951" lon="5.45783">
        <ele>427</ele>
        <time>2008-03-27T09:34:00Z</time>
      </trkpt>
      <trkpt lat="43.89467" lon="5.4587">
        <ele>424</ele>
        <time>2008-03-27T09:35:18Z</time>
      </trkpt>
      <trkpt lat="43.89453" lon="5.46047">
        <ele>419</ele>
        <time>2008-03-27T09:37:17Z</time>
      </trkpt>
      <trkpt lat="43.89453" lon="5.46142">
        <ele>412</ele>
        <time>2008-03-27T09:38:18Z</time>
      </trkpt>
      <trkpt lat="43.89465" lon="5.46228">
        <ele>407</ele>
        <time>2008-03-27T09:39:19Z</time>
      </trkpt>
      <trkpt lat="43.89513" lon="5.46335">
        <ele>404</ele>
        <time>2008-03-27T09:40:41Z</time>
      </trkpt>
      <trkpt lat="43.89505" lon="5.46452">
        <ele>400</ele>
        <time>2008-03-27T09:41:51Z</time>
      </trkpt>
      <trkpt lat="43.8947" lon="5.46673">
        <ele>395</ele>
        <time>2008-03-27T09:44:26Z</time>
      </trkpt>
      <trkpt lat="43.89437" lon="5.46793">
        <ele>393</ele>
        <time>2008-03-27T09:45:41Z</time>
      </trkpt>
      <trkpt lat="43.89393" lon="5.46845">
        <ele>394</ele>
        <time>2008-03-27T09:46:32Z</time>
      </trkpt>
      <trkpt lat="43.89455" lon="5.4692">
        <ele>405</ele>
        <time>2008-03-27T09:48:34Z</time>
      </trkpt>
      <trkpt lat="43.8953" lon="5.46983">
        <ele>420</ele>
        <time>2008-03-27T09:50:05Z</time>
      </trkpt>
      <trkpt lat="43.89585" lon="5.4707">
        <ele>430</ele>
        <time>2008-03-27T09:51:44Z</time>
      </trkpt>
      <trkpt lat="43.89665" lon="5.47083">
        <ele>443</ele>
        <time>2008-03-27T09:53:19Z</time>
      </trkpt>
      <trkpt lat="43.89732" lon="5.47078">
        <ele>449</ele>
        <time>2008-03-27T09:54:42Z</time>
      </trkpt>
      <trkpt lat="43.89805" lon="5.47115">
        <ele>459</ele>
        <time>2008-03-27T09:56:13Z</time>
      </trkpt>
      <trkpt lat="43.89878" lon="5.4716">
        <ele>474</ele>
        <time>2008-03-27T09:57:56Z</time>
      </trkpt>
      <trkpt lat="43.89938" lon="5.47153">
        <ele>484</ele>
        <time>2008-03-27T10:00:41Z</time>
      </trkpt>
      <trkpt lat="43.90007" lon="5.47142">
        <ele>496</ele>
        <time>2008-03-27T10:02:00Z</time>
      </trkpt>
      <trkpt lat="43.90025" lon="5.4728">
        <ele>504</ele>
        <time>2008-03-27T10:04:59Z</time>
      </trkpt>
      <trkpt lat="43.90037" lon="5.47408">
        <ele>506</ele>
        <time>2008-03-27T10:10:55Z</time>
      </trkpt>
      <trkpt lat="43.90043" lon="5.47525">
        <ele>507</ele>
        <time>2008-03-27T10:12:16Z</time>
      </trkpt>
      <trkpt lat="43.90055" lon="5.47628">
        <ele>509</ele>
        <time>2008-03-27T10:13:32Z</time>
      </trkpt>
      <trkpt lat="43.90062" lon="5.47735">
        <ele>510</ele>
        <time>2008-03-27T10:14:47Z</time>
      </trkpt>
      <trkpt lat="43.90087" lon="5.47867">
        <ele>507</ele>
        <time>2008-03-27T10:16:15Z</time>
      </trkpt>
      <trkpt lat="43.9014" lon="5.47957">
        <ele>511</ele>
        <time>2008-03-27T10:17:37Z</time>
      </trkpt>
      <trkpt lat="43.9019" lon="5.48048">
        <ele>512</ele>
        <time>2008-03-27T10:19:00Z</time>
      </trkpt>
      <trkpt lat="43.90213" lon="5.48095">
        <ele>512</ele>
        <time>2008-03-27T10:21:25Z</time>
      </trkpt>
      <trkpt lat="43.9027" lon="5.48083">
        <ele>514</ele>
        <time>2008-03-27T10:23:53Z</time>
      </trkpt>
      <trkpt lat="43.90305" lon="5.48175">
        <ele>507</ele>
        <time>2008-03-27T10:26:37Z</time>
      </trkpt>
      <trkpt lat="43.90378" lon="5.48263">
        <ele>504</ele>
        <time>2008-03-27T10:28:15Z</time>
      </trkpt>
      <trkpt lat="43.9042" lon="5.48452">
        <ele>504</ele>
        <time>2008-03-27T10:30:23Z</time>
      </trkpt>
      <trkpt lat="43.9043" lon="5.4853">
        <ele>507</ele>
        <time>2008-03-27T10:31:08Z</time>
      </trkpt>
      <trkpt lat="43.90453" lon="5.48638">
        <ele>514</ele>
        <time>2008-03-27T10:32:34Z</time>
      </trkpt>
      <trkpt lat="43.90545" lon="5.48808">
        <ele>522</ele>
        <time>2008-03-27T10:34:51Z</time>
      </trkpt>
      <trkpt lat="43.90615" lon="5.48982">
        <ele>523</ele>
        <time>2008-03-27T10:36:53Z</time>
      </trkpt>
      <trkpt lat="43.90608" lon="5.49088">
        <ele>525</ele>
        <time>2008-03-27T10:38:28Z</time>
      </trkpt>
      <trkpt lat="43.90603" lon="5.4916">
        <ele>525</ele>
        <time>2008-03-27T10:40:40Z</time>
      </trkpt>
      <trkpt lat="43.90612" lon="5.4925">
        <ele>527</ele>
        <time>2008-03-27T10:41:58Z</time>
      </trkpt>
      <trkpt lat="43.90662" lon="5.49363">
        <ele>534</ele>
        <time>2008-03-27T10:43:31Z</time>
      </trkpt>
      <trkpt lat="43.90695" lon="5.49468">
        <ele>538</ele>
        <time>2008-03-27T10:44:54Z</time>
      </trkpt>
      <trkpt lat="43.90662" lon="5.49533">
        <ele>545</ele>
        <time>2008-03-27T10:46:25Z</time>
      </trkpt>
      <trkpt lat="43.90622" lon="5.49642">
        <ele>544</ele>
        <time>2008-03-27T10:48:00Z</time>
      </trkpt>
      <trkpt lat="43.90582" lon="5.49693">
        <ele>545</ele>
        <time>2008-03-27T10:48:59Z</time>
      </trkpt>
      <trkpt lat="43.90512" lon="5.49723">
        <ele>551</ele>
        <time>2008-03-27T10:50:13Z</time>
      </trkpt>
      <trkpt lat="43.90435" lon="5.49703">
        <ele>557</ele>
        <time>2008-03-27T10:51:41Z</time>
      </trkpt>
      <trkpt lat="43.90398" lon="5.49967">
        <ele>569</ele>
        <time>2008-03-27T10:55:37Z</time>
      </trkpt>
      <trkpt lat="43.90405" lon="5.50045">
        <ele>570</ele>
        <time>2008-03-27T10:56:24Z</time>
      </trkpt>
      <trkpt lat="43.90435" lon="5.50198">
        <ele>572</ele>
        <time>2008-03-27T10:57:59Z</time>
      </trkpt>
      <trkpt lat="43.9042" lon="5.50438">
        <ele>562</ele>
        <time>2008-03-27T11:00:26Z</time>
      </trkpt>
      <trkpt lat="43.90407" lon="5.50592">
        <ele>560</ele>
        <time>2008-03-27T11:01:50Z</time>
      </trkpt>
      <trkpt lat="43.9036" lon="5.50697">
        <ele>559</ele>
        <time>2008-03-27T11:03:32Z</time>
      </trkpt>
      <trkpt lat="43.90328" lon="5.50822">
        <ele>550</ele>
        <time>2008-03-27T11:04:46Z</time>
      </trkpt>
      <trkpt lat="43.90323" lon="5.50887">
        <ele>548</ele>
        <time>2008-03-27T11:06:04Z</time>
      </trkpt>
      <trkpt lat="43.90337" lon="5.5101">
        <ele>544</ele>
        <time>2008-03-27T11:08:25Z</time>
      </trkpt>
      <trkpt lat="43.9036" lon="5.5109">
        <ele>542</ele>
        <time>2008-03-27T11:09:21Z</time>
      </trkpt>
      <trkpt lat="43.90435" lon="5.51182">
        <ele>538</ele>
        <time>2008-03-27T11:10:47Z</time>
      </trkpt>
      <trkpt lat="43.9048" lon="5.51255">
        <ele>537</ele>
        <time>2008-03-27T11:12:01Z</time>
      </trkpt>
      <trkpt lat="43.90525" lon="5.51165">
        <ele>526</ele>
        <time>2008-03-27T11:13:31Z</time>
      </trkpt>
      <trkpt lat="43.9058" lon="5.51162">
        <ele>514</ele>
        <time>2008-03-27T11:14:32Z</time>
      </trkpt>
      <trkpt lat="43.90618" lon="5.51205">
        <ele>509</ele>
        <time>2008-03-27T11:15:17Z</time>
      </trkpt>
      <trkpt lat="43.90648" lon="5.51285">
        <ele>509</ele>
        <time>2008-03-27T11:16:05Z</time>
      </trkpt>
      <trkpt lat="43.90698" lon="5.5132">
        <ele>500</ele>
        <time>2008-03-27T11:16:53Z</time>
      </trkpt>
      <trkpt lat="43.90775" lon="5.51353">
        <ele>496</ele>
        <time>2008-03-27T11:17:39Z</time>
      </trkpt>
      <trkpt lat="43.90827" lon="5.51365">
        <ele>490</ele>
        <time>2008-03-27T11:18:33Z</time>
      </trkpt>
      <trkpt lat="43.90928" lon="5.51363">
        <ele>473</ele>
        <time>2008-03-27T11:20:19Z</time>
      </trkpt>
      <trkpt lat="43.90982" lon="5.51365">
        <ele>467</ele>
        <time>2008-03-27T11:21:15Z</time>
      </trkpt>
      <trkpt lat="43.91053" lon="5.51305">
        <ele>452</ele>
        <time>2008-03-27T11:22:28Z</time>
      </trkpt>
      <trkpt lat="43.91152" lon="5.51333">
        <ele>443</ele>
        <time>2008-03-27T11:24:01Z</time>
      </trkpt>
      <trkpt lat="43.91217" lon="5.51323">
        <ele>435</ele>
        <time>2008-03-27T11:24:59Z</time>
      </trkpt>
      <trkpt lat="43.91213" lon="5.5126">
        <ele>435</ele>
        <time>2008-03-27T11:25:51Z</time>
      </trkpt>
      <trkpt lat="43.9128" lon="5.51198">
        <ele>428</ele>
        <time>2008-03-27T11:26:48Z</time>
      </trkpt>
      <trkpt lat="43.91325" lon="5.5114">
        <ele>423</ele>
        <time>2008-03-27T11:27:47Z</time>
      </trkpt>
      <trkpt lat="43.91358" lon="5.5108">
        <ele>412</ele>
        <time>2008-03-27T11:28:52Z</time>
      </trkpt>
      <trkpt lat="43.914" lon="5.5105">
        <ele>408</ele>
        <time>2008-03-27T11:31:51Z</time>
      </trkpt>
      <trkpt lat="43.91427" lon="5.50985">
        <ele>408</ele>
        <time>2008-03-27T11:33:53Z</time>
      </trkpt>
      <trkpt lat="43.91498" lon="5.50903">
        <ele>411</ele>
        <time>2008-03-27T11:35:15Z</time>
      </trkpt>
      <trkpt lat="43.91543" lon="5.5083">
        <ele>404</ele>
        <time>2008-03-27T11:36:18Z</time>
      </trkpt>
      <trkpt lat="43.91697" lon="5.505">
        <ele>386</ele>
        <time>2008-03-27T11:39:53Z</time>
      </trkpt>
      <trkpt lat="43.9174" lon="5.50433">
        <ele>384</ele>
        <time>2008-03-27T11:40:48Z</time>
      </trkpt>
      <trkpt lat="43.91753" lon="5.50348">
        <ele>369</ele>
        <time>2008-03-27T11:41:50Z</time>
      </trkpt>
      <trkpt lat="43.91773" lon="5.5029">
        <ele>361</ele>
        <time>2008-03-27T11:42:33Z</time>
      </trkpt>
      <trkpt lat="43.91798" lon="5.50215">
        <ele>359</ele>
        <time>2008-03-27T11:43:28Z</time>
      </trkpt>
      <trkpt lat="43.91825" lon="5.50152">
        <ele>361</ele>
        <time>2008-03-27T11:45:06Z</time>
      </trkpt>
      <trkpt lat="43.91833" lon="5.50062">
        <ele>363</ele>
        <time>2008-03-27T11:46:44Z</time>
      </trkpt>
      <trkpt lat="43.91795" lon="5.49988">
        <ele>360</ele>
        <time>2008-03-27T11:47:48Z</time>
      </trkpt>
      <trkpt lat="43.91777" lon="5.49827">
        <ele>360</ele>
        <time>2008-03-27T11:49:58Z</time>
      </trkpt>
      <trkpt lat="43.91712" lon="5.49773">
        <ele>358</ele>
        <time>2008-03-27T11:54:15Z</time>
      </trkpt>
      <trkpt lat="43.91655" lon="5.49767">
        <ele>355</ele>
        <time>2008-03-27T11:55:04Z</time>
      </trkpt>
      <trkpt lat="43.916" lon="5.49752">
        <ele>352</ele>
        <time>2008-03-27T11:55:59Z</time>
      </trkpt>
      <trkpt lat="43.91555" lon="5.49773">
        <ele>359</ele>
        <time>2008-03-27T11:57:09Z</time>
      </trkpt>
      <trkpt lat="43.91528" lon="5.49715">
        <ele>359</ele>
        <time>2008-03-27T11:58:31Z</time>
      </trkpt>
      <trkpt lat="43.91465" lon="5.49742">
        <ele>362</ele>
        <time>2008-03-27T12:00:21Z</time>
      </trkpt>
      <trkpt lat="43.91432" lon="5.49788">
        <ele>364</ele>
        <time>2008-03-27T12:01:07Z</time>
      </trkpt>
      <trkpt lat="43.91372" lon="5.4978">
        <ele>358</ele>
        <time>2008-03-27T12:02:14Z</time>
      </trkpt>
      <trkpt lat="43.91322" lon="5.49758">
        <ele>365</ele>
        <time>2008-03-27T12:03:13Z</time>
      </trkpt>
      <trkpt lat="43.9129" lon="5.49717">
        <ele>372</ele>
        <time>2008-03-27T13:30:39Z</time>
      </trkpt>
      <trkpt lat="43.9131" lon="5.49635">
        <ele>369</ele>
        <time>2008-03-27T13:34:17Z</time>
      </trkpt>
      <trkpt lat="43.91298" lon="5.4957">
        <ele>371</ele>
        <time>2008-03-27T13:37:38Z</time>
      </trkpt>
      <trkpt lat="43.91295" lon="5.49507">
        <ele>369</ele>
        <time>2008-03-27T13:40:06Z</time>
      </trkpt>
      <trkpt lat="43.9132" lon="5.49472">
        <ele>366</ele>
        <time>2008-03-27T13:43:06Z</time>
      </trkpt>
      <trkpt lat="43.9138" lon="5.4946">
        <ele>363</ele>
        <time>2008-03-27T13:44:30Z</time>
      </trkpt>
      <trkpt lat="43.91422" lon="5.49398">
        <ele>361</ele>
        <time>2008-03-27T13:45:51Z</time>
      </trkpt>
      <trkpt lat="43.91378" lon="5.49438">
        <ele>363</ele>
        <time>2008-03-27T13:49:36Z</time>
      </trkpt>
      <trkpt lat="43.91337" lon="5.49428">
        <ele>363</ele>
        <time>2008-03-27T13:53:17Z</time>
      </trkpt>
      <trkpt lat="43.91302" lon="5.49443">
        <ele>364</ele>
        <time>2008-03-27T13:54:31Z</time>
      </trkpt>
      <trkpt lat="43.91267" lon="5.4946">
        <ele>365</ele>
        <time>2008-03-27T13:55:50Z</time>
      </trkpt>
      <trkpt lat="43.91235" lon="5.49487">
        <ele>365</ele>
        <time>2008-03-27T13:57:46Z</time>
      </trkpt>
      <trkpt lat="43.91207" lon="5.49458">
        <ele>360</ele>
        <time>2008-03-27T14:00:52Z</time>
      </trkpt>
      <trkpt lat="43.91233" lon="5.49375">
        <ele>358</ele>
        <time>2008-03-27T14:02:58Z</time>
      </trkpt>
      <trkpt lat="43.91243" lon="5.49327">
        <ele>354</ele>
        <time>2008-03-27T14:04:41Z</time>
      </trkpt>
      <trkpt lat="43.91293" lon="5.493">
        <ele>347</ele>
        <time>2008-03-27T14:07:02Z</time>
      </trkpt>
      <trkpt lat="43.91345" lon="5.49282">
        <ele>350</ele>
        <time>2008-03-27T14:08:43Z</time>
      </trkpt>
      <trkpt lat="43.91385" lon="5.49258">
        <ele>349</ele>
        <time>2008-03-27T14:10:28Z</time>
      </trkpt>
      <trkpt lat="43.91418" lon="5.49177">
        <ele>346</ele>
        <time>2008-03-27T14:12:13Z</time>
      </trkpt>
      <trkpt lat="43.91437" lon="5.49022">
        <ele>345</ele>
        <time>2008-03-27T14:14:25Z</time>
      </trkpt>
      <trkpt lat="43.91468" lon="5.48985">
        <ele>342</ele>
        <time>2008-03-27T14:15:17Z</time>
      </trkpt>
      <trkpt lat="43.91505" lon="5.48977">
        <ele>340</ele>
        <time>2008-03-27T14:16:20Z</time>
      </trkpt>
      <trkpt lat="43.91538" lon="5.48963">
        <ele>342</ele>
        <time>2008-03-27T14:24:24Z</time>
      </trkpt>
      <trkpt lat="43.91515" lon="5.48855">
        <ele>341</ele>
        <time>2008-03-27T14:25:43Z</time>
      </trkpt>
      <trkpt lat="43.91487" lon="5.48775">
        <ele>339</ele>
        <time>2008-03-27T14:27:11Z</time>
      </trkpt>
      <trkpt lat="43.91465" lon="5.48683">
        <ele>338</ele>
        <time>2008-03-27T14:28:18Z</time>
      </trkpt>
      <trkpt lat="43.91442" lon="5.48623">
        <ele>337</ele>
        <time>2008-03-27T14:29:07Z</time>
      </trkpt>
      <trkpt lat="43.91442" lon="5.48537">
        <ele>334</ele>
        <time>2008-03-27T14:30:14Z</time>
      </trkpt>
      <trkpt lat="43.91387" lon="5.48505">
        <ele>338</ele>
        <time>2008-03-27T14:31:52Z</time>
      </trkpt>
      <trkpt lat="43.91388" lon="5.4844">
        <ele>335</ele>
        <time>2008-03-27T14:33:02Z</time>
      </trkpt>
      <trkpt lat="43.91377" lon="5.48347">
        <ele>335</ele>
        <time>2008-03-27T14:34:27Z</time>
      </trkpt>
      <trkpt lat="43.9134" lon="5.48305">
        <ele>334</ele>
        <time>2008-03-27T14:35:29Z</time>
      </trkpt>
      <trkpt lat="43.91312" lon="5.48193">
        <ele>334</ele>
        <time>2008-03-27T14:37:08Z</time>
      </trkpt>
      <trkpt lat="43.91302" lon="5.48122">
        <ele>331</ele>
        <time>2008-03-27T14:38:37Z</time>
      </trkpt>
      <trkpt lat="43.91285" lon="5.48043">
        <ele>332</ele>
        <time>2008-03-27T14:40:29Z</time>
      </trkpt>
      <trkpt lat="43.91263" lon="5.47983">
        <ele>334</ele>
        <time>2008-03-27T14:41:23Z</time>
      </trkpt>
      <trkpt lat="43.9127" lon="5.47918">
        <ele>330</ele>
        <time>2008-03-27T14:42:12Z</time>
      </trkpt>
      <trkpt lat="43.91292" lon="5.4781">
        <ele>331</ele>
        <time>2008-03-27T14:43:47Z</time>
      </trkpt>
      <trkpt lat="43.91315" lon="5.4773">
        <ele>329</ele>
        <time>2008-03-27T14:45:06Z</time>
      </trkpt>
      <trkpt lat="43.91352" lon="5.4769">
        <ele>327</ele>
        <time>2008-03-27T14:45:55Z</time>
      </trkpt>
      <trkpt lat="43.9141" lon="5.47683">
        <ele>321</ele>
        <time>2008-03-27T14:46:57Z</time>
      </trkpt>
      <trkpt lat="43.91407" lon="5.4761">
        <ele>321</ele>
        <time>2008-03-27T14:47:47Z</time>
      </trkpt>
      <trkpt lat="43.91403" lon="5.47517">
        <ele>318</ele>
        <time>2008-03-27T14:49:01Z</time>
      </trkpt>
      <trkpt lat="43.91417" lon="5.47445">
        <ele>317</ele>
        <time>2008-03-27T14:50:08Z</time>
      </trkpt>
      <trkpt lat="43.91398" lon="5.47325">
        <ele>318</ele>
        <time>2008-03-27T14:51:38Z</time>
      </trkpt>
      <trkpt lat="43.91342" lon="5.47258">
        <ele>319</ele>
        <time>2008-03-27T14:53:06Z</time>
      </trkpt>
      <trkpt lat="43.91365" lon="5.47195">
        <ele>318</ele>
        <time>2008-03-27T14:54:24Z</time>
      </trkpt>
      <trkpt lat="43.91403" lon="5.47177">
        <ele>317</ele>
        <time>2008-03-27T14:55:18Z</time>
      </trkpt>
      <trkpt lat="43.91425" lon="5.47122">
        <ele>317</ele>
        <time>2008-03-27T14:56:42Z</time>
      </trkpt>
      <trkpt lat="43.91438" lon="5.47028">
        <ele>316</ele>
        <time>2008-03-27T14:59:08Z</time>
      </trkpt>
      <trkpt lat="43.91433" lon="5.46957">
        <ele>315</ele>
        <time>2008-03-27T15:03:03Z</time>
      </trkpt>
      <trkpt lat="43.91365" lon="5.4696">
        <ele>313</ele>
        <time>2008-03-27T15:04:16Z</time>
      </trkpt>
    </trkseg>
  </trk>
</gpx>